createdAt,value
2023-04-08T00:00:31.064Z,21.67
2023-04-08T00:01:33.961Z,24.95
2023-04-08T00:02:36.204Z,22.27
2023-04-08T00:03:39.301Z,20.67
2023-04-08T00:04:41.659Z,19.70
2023-04-08T00:05:45.055Z,20.23
2023-04-08T00:06:46.891Z,21.90
2023-04-08T00:07:49.710Z,20.83
2023-04-08T00:08:55.167Z,20.25
2023-04-08T00:09:59.139Z,21.77
2023-04-08T00:11:02.066Z,20.13
2023-04-08T00:12:04.665Z,19.95
2023-04-08T00:13:07.487Z,22.20
2023-04-08T00:14:09.334Z,23.52
2023-04-08T00:15:12.825Z,22.67
2023-04-08T00:16:14.786Z,21.92
2023-04-08T00:17:17.914Z,25.50
2023-04-08T00:18:25.365Z,21.50
2023-04-08T00:19:28.223Z,21.65
2023-04-08T00:20:30.784Z,21.13
2023-04-08T00:21:34.082Z,22.38
2023-04-08T00:22:36.575Z,22.08
2023-04-08T00:23:39.396Z,17.48
2023-04-08T00:24:47.905Z,24.38
2023-04-08T00:25:51.089Z,21.50
2023-04-08T00:26:52.877Z,18.58
2023-04-08T00:27:56.267Z,23.83
2023-04-08T00:28:58.301Z,22.10
2023-04-08T00:30:01.692Z,20.08
2023-04-08T00:31:04.190Z,21.83
2023-04-08T00:32:07.383Z,18.73
2023-04-08T00:33:10.049Z,21.40
2023-04-08T00:34:14.997Z,19.80
2023-04-08T00:35:16.908Z,21.63
2023-04-08T00:36:20.280Z,22.65
2023-04-08T00:37:23.422Z,22.55
2023-04-08T00:38:26.564Z,24.10
2023-04-08T00:39:28.471Z,24.95
2023-04-08T00:40:33.379Z,26.63
2023-04-08T00:41:36.153Z,27.33
2023-04-08T00:42:39.112Z,28.45
2023-04-08T00:43:42.112Z,27.13
2023-04-08T00:44:44.969Z,27.90
2023-04-08T00:45:46.761Z,27.15
2023-04-08T00:46:51.760Z,28.30
2023-04-08T00:47:53.863Z,30.42
2023-04-08T00:48:57.901Z,28.00
2023-04-08T00:50:00.019Z,29.73
2023-04-08T00:51:03.189Z,30.83
2023-04-08T00:52:05.344Z,32.15
2023-04-08T00:53:08.279Z,32.58
2023-04-08T00:54:10.208Z,30.40
2023-04-08T00:55:13.052Z,31.42
2023-04-08T00:56:16.883Z,30.30
2023-04-08T00:57:19.980Z,30.90
2023-04-08T00:58:21.892Z,31.60
2023-04-08T00:59:24.761Z,27.67
2023-04-08T01:00:26.642Z,27.83
2023-04-08T01:01:36.141Z,27.85
2023-04-08T01:02:48.861Z,28.92
2023-04-08T01:03:59.545Z,27.60
2023-04-08T01:05:04.624Z,27.30
2023-04-08T01:06:12.305Z,27.17
2023-04-08T01:07:18.725Z,25.63
2023-04-08T01:08:23.476Z,29.08
2023-04-08T01:09:31.244Z,29.67
2023-04-08T01:10:35.500Z,30.35
2023-04-08T01:11:42.390Z,28.00
2023-04-08T01:12:58.392Z,31.90
2023-04-08T01:14:02.067Z,28.92
2023-04-08T01:15:07.838Z,33.17
2023-04-08T01:16:13.656Z,33.08
2023-04-08T01:17:19.468Z,31.30
2023-04-08T01:18:22.109Z,31.17
2023-04-08T01:19:32.689Z,30.92
2023-04-08T01:20:35.995Z,31.52
2023-04-08T01:21:38.158Z,34.40
2023-04-08T01:23:04.646Z,29.73
2023-04-08T01:24:10.170Z,26.98
2023-04-08T01:25:16.833Z,29.92
2023-04-08T01:26:23.615Z,29.58
2023-04-08T01:27:29.028Z,25.92
2023-04-08T01:28:33.941Z,28.45
2023-04-08T01:29:37.773Z,27.27
2023-04-08T01:30:42.956Z,24.75
2023-04-08T01:31:46.365Z,27.05
2023-04-08T01:32:49.389Z,26.52
2023-04-08T01:33:51.784Z,28.95
2023-04-08T01:34:55.132Z,25.10
2023-04-08T01:35:58.197Z,27.02
2023-04-08T01:37:01.470Z,25.75
2023-04-08T01:38:06.729Z,26.55
2023-04-08T01:39:09.830Z,27.45
2023-04-08T01:40:12.086Z,27.63
2023-04-08T01:41:15.302Z,26.27
2023-04-08T01:42:18.671Z,31.63
2023-04-08T01:43:22.261Z,26.20
2023-04-08T01:44:26.577Z,28.42
2023-04-08T01:45:30.157Z,26.70
2023-04-08T01:46:32.961Z,31.75
2023-04-08T01:47:37.139Z,27.27
2023-04-08T01:48:40.537Z,26.80
2023-04-08T01:49:43.836Z,27.70
2023-04-08T01:50:46.222Z,28.50
2023-04-08T01:51:50.228Z,29.55
2023-04-08T01:52:53.771Z,32.17
2023-04-08T01:53:56.772Z,32.70
2023-04-08T01:54:58.666Z,33.65
2023-04-08T01:56:05.890Z,37.35
2023-04-08T01:57:08.939Z,32.40
2023-04-08T01:58:19.521Z,36.53
2023-04-08T01:59:22.278Z,33.25
2023-04-08T02:00:29.900Z,36.25
2023-04-08T02:01:33.019Z,37.88
2023-04-08T02:02:38.156Z,34.65
2023-04-08T02:03:44.513Z,31.73
2023-04-08T02:04:46.602Z,32.17
2023-04-08T02:05:49.567Z,31.13
2023-04-08T02:06:52.429Z,31.88
2023-04-08T02:07:55.402Z,35.40
2023-04-08T02:08:57.396Z,35.50
2023-04-08T02:10:00.396Z,34.70
2023-04-08T02:11:02.538Z,31.25
2023-04-08T02:12:05.741Z,32.33
2023-04-08T02:13:10.439Z,33.17
2023-04-08T02:14:14.774Z,32.20
2023-04-08T02:15:16.839Z,35.35
2023-04-08T02:16:24.043Z,33.10
2023-04-08T02:17:29.910Z,32.25
2023-04-08T02:18:33.460Z,30.65
2023-04-08T02:19:40.643Z,34.70
2023-04-08T02:20:49.476Z,31.83
2023-04-08T02:21:56.062Z,30.48
2023-04-08T02:23:05.075Z,30.25
2023-04-08T02:24:09.530Z,32.00
2023-04-08T02:25:16.861Z,35.20
2023-04-08T02:26:19.372Z,31.42
2023-04-08T02:27:22.650Z,30.75
2023-04-08T02:28:26.456Z,29.75
2023-04-08T02:29:33.920Z,30.58
2023-04-08T02:30:36.624Z,29.40
2023-04-08T02:31:42.221Z,28.95
2023-04-08T02:33:15.007Z,29.35
2023-04-08T02:34:17.998Z,28.25
2023-04-08T02:35:24.736Z,27.52
2023-04-08T02:36:27.197Z,29.67
2023-04-08T02:37:30.339Z,26.90
2023-04-08T02:38:41.949Z,27.40
2023-04-08T02:39:45.060Z,25.88
2023-04-08T02:40:51.265Z,27.73
2023-04-08T02:41:54.660Z,26.20
2023-04-08T02:42:58.259Z,28.08
2023-04-08T02:44:02.364Z,25.73
2023-04-08T02:45:08.009Z,30.30
2023-04-08T02:46:12.258Z,25.33
2023-04-08T02:47:14.306Z,28.20
2023-04-08T02:48:18.499Z,25.83
2023-04-08T02:49:20.409Z,27.52
2023-04-08T02:50:23.372Z,28.27
2023-04-08T02:51:26.304Z,30.75
2023-04-08T02:52:29.264Z,25.95
2023-04-08T02:53:31.368Z,27.75
2023-04-08T02:54:36.119Z,24.98
2023-04-08T02:55:39.478Z,27.30
2023-04-08T02:56:42.751Z,26.75
2023-04-08T02:57:44.658Z,27.00
2023-04-08T02:58:47.794Z,28.88
2023-04-08T02:59:49.879Z,28.27
2023-04-08T03:00:54.218Z,27.38
2023-04-08T03:01:56.780Z,25.88
2023-04-08T03:02:59.973Z,25.33
2023-04-08T03:04:05.822Z,30.15
2023-04-08T03:05:10.102Z,26.15
2023-04-08T03:06:11.993Z,27.42
2023-04-08T03:07:16.641Z,29.05
2023-04-08T03:08:19.499Z,26.23
2023-04-08T03:09:21.459Z,27.58
2023-04-08T03:10:24.588Z,29.05
2023-04-08T03:11:26.648Z,21.08
2023-04-08T03:12:29.523Z,26.80
2023-04-08T03:13:31.807Z,25.80
2023-04-08T03:14:34.853Z,25.35
2023-04-08T03:15:36.810Z,27.67
2023-04-08T03:16:41.954Z,23.85
2023-04-08T03:17:43.994Z,28.58
2023-04-08T03:18:46.926Z,25.60
2023-04-08T03:19:48.894Z,27.85
2023-04-08T03:20:51.779Z,27.95
2023-04-08T03:21:53.618Z,25.25
2023-04-08T03:22:59.785Z,26.48
2023-04-08T03:24:01.689Z,25.13
2023-04-08T03:25:04.752Z,25.40
2023-04-08T03:26:06.785Z,24.80
2023-04-08T03:27:09.603Z,23.90
2023-04-08T03:28:11.476Z,25.38
2023-04-08T03:29:14.507Z,25.35
2023-04-08T03:30:16.668Z,22.38
2023-04-08T03:31:21.205Z,23.27
2023-04-08T03:32:24.686Z,22.40
2023-04-08T03:33:27.638Z,26.80
2023-04-08T03:34:29.623Z,22.98
2023-04-08T03:35:33.402Z,25.13
2023-04-08T03:36:36.222Z,22.80
2023-04-08T03:37:38.114Z,25.15
2023-04-08T03:38:41.052Z,24.23
2023-04-08T03:39:42.877Z,23.85
2023-04-08T03:40:45.723Z,23.50
2023-04-08T03:41:47.719Z,21.00
2023-04-08T03:42:50.553Z,21.20
2023-04-08T03:43:52.775Z,22.88
2023-04-08T03:44:56.178Z,23.08
2023-04-08T03:45:58.161Z,23.17
2023-04-08T03:47:01.256Z,24.83
2023-04-08T03:48:05.398Z,22.45
2023-04-08T03:49:54.687Z,19.58
2023-04-08T03:50:59.722Z,24.75
2023-04-08T03:52:02.212Z,21.65
2023-04-08T03:53:05.329Z,21.15
2023-04-08T03:54:07.821Z,23.55
2023-04-08T03:55:11.440Z,22.77
2023-04-08T03:56:13.354Z,21.13
2023-04-08T03:57:16.430Z,23.30
2023-04-08T03:58:18.668Z,22.33
2023-04-08T03:59:21.673Z,21.77
2023-04-08T04:00:23.896Z,22.02
2023-04-08T04:01:27.005Z,20.58
2023-04-08T04:02:29.793Z,22.98
2023-04-08T04:03:34.529Z,22.00
2023-04-08T04:04:37.205Z,23.00
2023-04-08T04:05:40.697Z,23.75
2023-04-08T04:06:44.282Z,23.77
2023-04-08T04:07:47.307Z,20.10
2023-04-08T04:08:50.390Z,22.48
2023-04-08T04:09:56.899Z,23.80
2023-04-08T04:10:59.107Z,22.13
2023-04-08T04:12:02.438Z,21.20
2023-04-08T04:13:04.498Z,23.92
2023-04-08T04:14:07.480Z,21.73
2023-04-08T04:15:10.252Z,22.55
2023-04-08T04:16:13.537Z,22.38
2023-04-08T04:17:16.241Z,23.77
2023-04-08T04:18:19.322Z,23.83
2023-04-08T04:19:24.597Z,24.27
2023-04-08T04:20:29.211Z,20.90
2023-04-08T04:21:31.633Z,23.23
2023-04-08T04:22:35.188Z,22.42
2023-04-08T04:23:37.235Z,19.17
2023-04-08T04:24:40.750Z,22.73
2023-04-08T04:25:43.463Z,23.13
2023-04-08T04:26:46.890Z,24.65
2023-04-08T04:27:48.881Z,22.52
2023-04-08T04:28:52.293Z,22.42
2023-04-08T04:29:54.547Z,22.13
2023-04-08T04:30:57.616Z,23.88
2023-04-08T04:32:01.800Z,22.35
2023-04-08T04:33:05.247Z,23.05
2023-04-08T04:34:07.343Z,24.73
2023-04-08T04:35:12.125Z,22.77
2023-04-08T04:36:14.184Z,23.48
2023-04-08T04:37:17.637Z,25.23
2023-04-08T04:38:22.073Z,24.02
2023-04-08T04:39:31.298Z,22.55
2023-04-08T04:40:34.991Z,21.30
2023-04-08T04:42:01.804Z,19.23
2023-04-08T04:43:04.008Z,20.70
2023-04-08T04:44:07.378Z,21.98
2023-04-08T04:45:10.522Z,21.52
2023-04-08T04:46:13.491Z,22.92
2023-04-08T04:47:16.489Z,22.52
2023-04-08T04:48:19.585Z,22.55
2023-04-08T04:49:21.605Z,22.60
2023-04-08T04:50:26.054Z,21.15
2023-04-08T04:51:31.446Z,21.80
2023-04-08T04:52:34.334Z,22.90
2023-04-08T04:53:36.780Z,21.13
2023-04-08T04:54:40.290Z,21.98
2023-04-08T04:55:42.156Z,21.80
2023-04-08T04:56:45.117Z,22.55
2023-04-08T04:57:47.337Z,21.10
2023-04-08T04:58:53.721Z,22.10
2023-04-08T04:59:55.698Z,21.50
2023-04-08T05:01:03.623Z,22.70
2023-04-08T05:02:05.737Z,21.25
2023-04-08T05:03:08.883Z,21.65
2023-04-08T05:04:12.431Z,19.85
2023-04-08T05:05:14.582Z,21.55
2023-04-08T05:06:18.971Z,19.88
2023-04-08T05:07:21.760Z,19.15
2023-04-08T05:08:26.529Z,19.10
2023-04-08T05:09:30.284Z,19.65
2023-04-08T05:10:34.572Z,21.45
2023-04-08T05:11:36.562Z,19.08
2023-04-08T05:12:39.613Z,20.45
2023-04-08T05:13:41.648Z,21.38
2023-04-08T05:14:44.649Z,19.25
2023-04-08T05:15:46.677Z,17.35
2023-04-08T05:16:49.887Z,19.00
2023-04-08T05:17:51.790Z,21.35
2023-04-08T05:18:55.010Z,19.55
2023-04-08T05:19:58.396Z,19.67
2023-04-08T05:21:01.325Z,19.38
2023-04-08T05:22:04.828Z,19.13
2023-04-08T05:23:08.724Z,19.08
2023-04-08T05:24:10.656Z,19.15
2023-04-08T05:25:15.743Z,18.00
2023-04-08T05:26:19.867Z,17.25
2023-04-08T05:27:23.152Z,19.77
2023-04-08T05:28:24.999Z,19.77
2023-04-08T05:29:28.324Z,21.35
2023-04-08T05:30:32.999Z,18.85
2023-04-08T05:31:36.733Z,18.40
2023-04-08T05:32:39.088Z,18.42
2023-04-08T05:33:42.499Z,18.15
2023-04-08T05:34:44.619Z,17.40
2023-04-08T05:35:49.987Z,18.70
2023-04-08T05:36:52.163Z,18.58
2023-04-08T05:37:57.281Z,21.48
2023-04-08T05:39:00.713Z,19.42
2023-04-08T05:40:04.611Z,15.98
2023-04-08T05:41:06.725Z,17.65
2023-04-08T05:42:09.773Z,17.83
2023-04-08T05:43:11.897Z,21.02
2023-04-08T05:44:15.548Z,20.27
2023-04-08T05:45:17.847Z,18.60
2023-04-08T05:46:22.267Z,19.30
2023-04-08T05:47:24.652Z,17.77
2023-04-08T05:48:28.724Z,16.42
2023-04-08T05:49:31.060Z,19.52
2023-04-08T05:50:36.494Z,18.73
2023-04-08T05:51:40.769Z,17.20
2023-04-08T05:52:44.865Z,16.73
2023-04-08T05:53:48.263Z,17.30
2023-04-08T05:54:51.849Z,17.42
2023-04-08T05:55:54.284Z,18.13
2023-04-08T05:56:57.592Z,16.30
2023-04-08T05:58:02.295Z,18.50
2023-04-08T05:59:05.820Z,17.92
2023-04-08T06:00:09.346Z,17.27
2023-04-08T06:01:13.963Z,19.90
2023-04-08T06:02:16.666Z,19.15
2023-04-08T06:03:20.794Z,18.83
2023-04-08T06:04:23.170Z,18.67
2023-04-08T06:05:26.075Z,19.08
2023-04-08T06:06:27.991Z,17.80
2023-04-08T06:07:31.963Z,17.92
2023-04-08T06:08:33.852Z,16.67
2023-04-08T06:09:38.433Z,16.92
2023-04-08T06:10:40.775Z,19.85
2023-04-08T06:11:44.322Z,18.77
2023-04-08T06:12:48.670Z,20.38
2023-04-08T06:13:54.031Z,20.30
2023-04-08T06:14:56.556Z,20.63
2023-04-08T06:16:00.457Z,19.08
2023-04-08T06:17:03.566Z,19.27
2023-04-08T06:18:06.944Z,16.25
2023-04-08T06:19:11.820Z,17.63
2023-04-08T06:20:16.853Z,17.27
2023-04-08T06:21:19.160Z,17.48
2023-04-08T06:22:22.269Z,15.00
2023-04-08T06:23:24.518Z,16.55
2023-04-08T06:24:27.937Z,15.20
2023-04-08T06:25:31.094Z,15.43
2023-04-08T06:26:34.150Z,14.38
2023-04-08T06:27:36.158Z,15.32
2023-04-08T06:28:42.665Z,15.35
2023-04-08T06:29:45.981Z,16.58
2023-04-08T06:30:48.238Z,16.17
2023-04-08T06:31:51.694Z,15.45
2023-04-08T06:32:53.748Z,14.05
2023-04-08T06:33:57.636Z,15.95
2023-04-08T06:35:01.072Z,15.45
2023-04-08T06:36:04.038Z,17.52
2023-04-08T06:37:07.125Z,16.52
2023-04-08T06:38:09.121Z,13.68
2023-04-08T06:39:12.561Z,15.95
2023-04-08T06:40:14.795Z,16.25
2023-04-08T06:41:19.135Z,18.50
2023-04-08T06:42:23.000Z,17.90
2023-04-08T06:43:44.390Z,18.17
2023-04-08T06:44:46.946Z,18.38
2023-04-08T06:45:49.869Z,16.60
2023-04-08T06:46:52.071Z,18.67
2023-04-08T06:47:56.474Z,16.38
2023-04-08T06:49:01.636Z,16.52
2023-04-08T06:50:05.045Z,16.77
2023-04-08T06:51:07.959Z,15.13
2023-04-08T06:52:12.192Z,17.45
2023-04-08T06:53:15.675Z,14.40
2023-04-08T06:54:18.562Z,16.85
2023-04-08T06:55:21.575Z,14.77
2023-04-08T06:56:26.597Z,16.45
2023-04-08T06:57:29.437Z,15.57
2023-04-08T06:58:32.450Z,15.95
2023-04-08T06:59:34.336Z,14.90
2023-04-08T07:00:38.100Z,17.15
2023-04-08T07:01:40.434Z,14.30
2023-04-08T07:02:43.985Z,15.63
2023-04-08T07:03:47.262Z,15.93
2023-04-08T07:04:52.748Z,15.75
2023-04-08T07:05:55.975Z,16.05
2023-04-08T07:06:57.949Z,14.15
2023-04-08T07:08:01.705Z,15.57
2023-04-08T07:09:05.459Z,13.80
2023-04-08T07:10:10.356Z,12.80
2023-04-08T07:11:14.021Z,13.73
2023-04-08T07:12:17.612Z,14.20
2023-04-08T07:13:20.500Z,14.75
2023-04-08T07:14:24.679Z,14.07
2023-04-08T07:15:27.686Z,14.13
2023-04-08T07:16:29.679Z,14.57
2023-04-08T07:17:33.393Z,14.40
2023-04-08T07:18:35.561Z,14.88
2023-04-08T07:19:38.910Z,17.27
2023-04-08T07:20:42.094Z,14.93
2023-04-08T07:21:45.460Z,17.30
2023-04-08T07:22:47.427Z,15.23
2023-04-08T07:23:52.267Z,14.45
2023-04-08T07:24:54.450Z,14.60
2023-04-08T07:25:57.397Z,18.23
2023-04-08T07:26:59.524Z,15.75
2023-04-08T07:28:03.755Z,15.05
2023-04-08T07:29:05.675Z,14.07
2023-04-08T07:30:11.048Z,15.93
2023-04-08T07:31:17.993Z,14.77
2023-04-08T07:32:21.004Z,13.50
2023-04-08T07:33:26.485Z,14.52
2023-04-08T07:34:28.293Z,15.38
2023-04-08T07:35:31.979Z,14.55
2023-04-08T07:36:34.109Z,12.27
2023-04-08T07:37:37.548Z,12.98
2023-04-08T07:38:40.258Z,12.82
2023-04-08T07:39:45.936Z,11.73
2023-04-08T07:40:47.786Z,12.40
2023-04-08T07:41:50.655Z,12.52
2023-04-08T07:42:56.117Z,14.15
2023-04-08T07:44:00.457Z,13.13
2023-04-08T07:45:03.559Z,11.40
2023-04-08T07:46:06.113Z,10.38
2023-04-08T07:47:11.930Z,9.85
2023-04-08T07:48:14.201Z,12.15
2023-04-08T07:49:19.034Z,11.40
2023-04-08T07:50:21.455Z,12.10
2023-04-08T07:51:24.533Z,10.63
2023-04-08T07:52:27.759Z,10.85
2023-04-08T07:53:30.156Z,11.40
2023-04-08T07:54:53.533Z,12.65
2023-04-08T07:55:57.945Z,13.02
2023-04-08T07:57:01.827Z,11.60
2023-04-08T07:58:03.820Z,13.50
2023-04-08T07:59:09.978Z,12.27
2023-04-08T08:00:12.837Z,12.27
2023-04-08T08:01:19.906Z,11.77
2023-04-08T08:02:22.343Z,12.65
2023-04-08T08:03:25.616Z,11.43
2023-04-08T08:04:28.298Z,11.52
2023-04-08T08:05:32.940Z,12.13
2023-04-08T08:06:35.922Z,13.35
2023-04-08T08:07:37.795Z,12.77
2023-04-08T08:08:41.019Z,12.90
2023-04-08T08:09:43.081Z,16.13
2023-04-08T08:10:45.991Z,13.05
2023-04-08T08:11:48.058Z,13.07
2023-04-08T08:12:52.327Z,12.02
2023-04-08T08:13:54.556Z,13.02
2023-04-08T08:15:00.734Z,12.18
2023-04-08T08:16:02.764Z,11.45
2023-04-08T08:17:05.679Z,13.55
2023-04-08T08:18:13.080Z,13.07
2023-04-08T08:19:15.401Z,12.32
2023-04-08T08:20:18.440Z,11.52
2023-04-08T08:21:20.793Z,11.90
2023-04-08T08:22:23.656Z,14.07
2023-04-08T08:23:27.121Z,12.95
2023-04-08T08:24:31.460Z,10.88
2023-04-08T08:25:34.794Z,10.70
2023-04-08T08:26:37.819Z,11.02
2023-04-08T08:27:42.336Z,8.88
2023-04-08T08:28:45.254Z,9.20
2023-04-08T08:29:47.235Z,10.85
2023-04-08T08:30:54.738Z,8.80
2023-04-08T08:31:57.895Z,9.60
2023-04-08T08:33:00.733Z,9.32
2023-04-08T08:34:03.760Z,9.07
2023-04-08T08:35:06.427Z,8.85
2023-04-08T08:36:10.774Z,10.70
2023-04-08T08:37:12.796Z,12.13
2023-04-08T08:38:17.666Z,11.25
2023-04-08T08:39:20.474Z,9.40
2023-04-08T08:40:24.534Z,9.57
2023-04-08T08:42:56.691Z,10.80
2023-04-08T08:44:01.047Z,8.73
2023-04-08T08:45:04.062Z,10.02
2023-04-08T08:46:12.447Z,9.60
2023-04-08T08:47:14.626Z,10.18
2023-04-08T08:48:17.962Z,15.40
2023-04-08T08:49:21.275Z,11.52
2023-04-08T08:50:24.340Z,9.25
2023-04-08T08:51:27.960Z,9.10
2023-04-08T08:52:31.782Z,9.13
2023-04-08T08:53:35.719Z,9.07
2023-04-08T08:54:38.908Z,10.50
2023-04-08T08:56:09.366Z,9.10
2023-04-08T08:57:04.411Z,9.73
2023-04-08T08:58:07.450Z,9.95
2023-04-08T08:59:10.485Z,10.95
2023-04-08T09:00:16.314Z,9.77
2023-04-08T09:01:34.234Z,8.73
2023-04-08T09:02:37.973Z,10.57
2023-04-08T09:03:41.721Z,8.60
2023-04-08T09:04:59.063Z,8.57
2023-04-08T09:06:06.224Z,9.32
2023-04-08T09:07:13.773Z,9.68
2023-04-08T09:08:29.248Z,8.48
2023-04-08T09:09:49.270Z,8.70
2023-04-08T09:10:51.520Z,8.23
2023-04-08T09:12:04.738Z,8.93
2023-04-08T09:13:14.851Z,8.55
2023-04-08T09:14:22.989Z,8.05
2023-04-08T09:15:25.137Z,8.18
2023-04-08T09:16:30.748Z,7.72
2023-04-08T09:17:38.974Z,8.98
2023-04-08T09:18:41.283Z,8.75
2023-04-08T09:20:11.864Z,9.35
2023-04-08T09:21:15.131Z,10.98
2023-04-08T09:22:17.892Z,9.02
2023-04-08T09:23:19.865Z,8.75
2023-04-08T09:24:30.863Z,9.02
2023-04-08T09:25:33.914Z,10.32
2023-04-08T09:26:41.665Z,9.20
2023-04-08T09:27:43.434Z,8.82
2023-04-08T09:28:59.216Z,9.50
2023-04-08T09:30:14.951Z,8.50
2023-04-08T09:31:21.131Z,8.13
2023-04-08T09:32:24.219Z,9.35
2023-04-08T09:33:32.035Z,9.18
2023-04-08T09:34:34.966Z,10.32
2023-04-08T09:35:36.888Z,8.95
2023-04-08T09:36:40.804Z,11.32
2023-04-08T09:37:42.901Z,10.50
2023-04-08T09:38:46.878Z,11.02
2023-04-08T09:39:50.767Z,10.10
2023-04-08T09:40:54.077Z,9.82
2023-04-08T09:42:01.093Z,9.82
2023-04-08T09:43:07.493Z,8.95
2023-04-08T09:44:11.771Z,8.95
2023-04-08T09:45:14.036Z,9.05
2023-04-08T09:46:19.088Z,8.43
2023-04-08T09:47:24.199Z,8.70
2023-04-08T09:48:30.669Z,8.32
2023-04-08T09:49:39.593Z,9.75
2023-04-08T09:50:44.047Z,9.70
2023-04-08T09:51:58.139Z,10.15
2023-04-08T09:53:02.502Z,10.55
2023-04-08T09:54:10.473Z,10.35
2023-04-08T09:55:13.641Z,10.50
2023-04-08T09:56:18.545Z,9.13
2023-04-08T09:57:23.827Z,8.55
2023-04-08T09:58:29.280Z,9.18
2023-04-08T09:59:37.645Z,9.52
2023-04-08T10:00:44.070Z,8.52
2023-04-08T10:01:53.618Z,10.52
2023-04-08T10:02:57.359Z,11.57
2023-04-08T10:04:01.372Z,8.23
2023-04-08T10:05:08.264Z,8.40
2023-04-08T10:06:12.014Z,9.57
2023-04-08T10:07:15.575Z,8.20
2023-04-08T10:08:17.420Z,9.13
2023-04-08T10:09:21.514Z,9.75
2023-04-08T10:10:25.269Z,8.73
2023-04-08T10:11:28.303Z,10.25
2023-04-08T10:12:30.958Z,10.75
2023-04-08T10:13:34.885Z,9.32
2023-04-08T10:14:37.685Z,9.20
2023-04-08T10:15:43.427Z,11.73
2023-04-08T10:16:45.492Z,9.40
2023-04-08T10:17:48.402Z,9.85
2023-04-08T10:18:52.969Z,10.38
2023-04-08T10:19:58.556Z,8.80
2023-04-08T10:21:02.482Z,8.95
2023-04-08T10:22:07.893Z,9.80
2023-04-08T10:23:14.449Z,9.20
2023-04-08T10:24:18.698Z,9.35
2023-04-08T10:25:31.977Z,11.25
2023-04-08T10:26:41.042Z,8.80
2023-04-08T10:27:43.748Z,10.40
2023-04-08T10:28:46.692Z,8.68
2023-04-08T10:29:48.814Z,9.55
2023-04-08T10:30:52.538Z,8.18
2023-04-08T10:31:54.599Z,9.77
2023-04-08T10:32:59.832Z,9.65
2023-04-08T10:34:15.883Z,8.88
2023-04-08T10:35:30.275Z,8.80
2023-04-08T10:36:34.562Z,11.07
2023-04-08T10:37:43.757Z,10.40
2023-04-08T10:38:56.254Z,9.95
2023-04-08T10:39:59.034Z,10.13
2023-04-08T10:41:00.874Z,9.80
2023-04-08T10:42:09.431Z,10.55
2023-04-08T10:43:13.052Z,10.00
2023-04-08T10:44:19.307Z,9.55
2023-04-08T10:45:22.383Z,9.10
2023-04-08T10:46:28.641Z,9.60
2023-04-08T10:47:30.512Z,11.00
2023-04-08T10:48:34.154Z,12.88
2023-04-08T10:49:37.157Z,11.52
2023-04-08T10:50:41.316Z,10.05
2023-04-08T10:51:46.134Z,10.45
2023-04-08T10:52:48.090Z,10.63
2023-04-08T10:53:52.938Z,9.63
2023-04-08T10:54:55.605Z,9.10
2023-04-08T10:56:06.258Z,10.52
2023-04-08T10:57:09.155Z,9.30
2023-04-08T10:58:12.734Z,10.18
2023-04-08T10:59:17.689Z,10.00
2023-04-08T11:00:20.495Z,9.98
2023-04-08T11:01:24.113Z,10.02
2023-04-08T11:02:32.882Z,10.95
2023-04-08T11:03:37.646Z,10.85
2023-04-08T11:04:47.668Z,10.73
2023-04-08T11:05:51.721Z,10.02
2023-04-08T11:06:55.312Z,10.30
2023-04-08T11:07:59.103Z,11.13
2023-04-08T11:09:04.196Z,8.75
2023-04-08T11:10:08.044Z,11.48
2023-04-08T11:11:12.007Z,11.18
2023-04-08T11:12:18.062Z,10.43
2023-04-08T11:13:20.707Z,10.90
2023-04-08T11:14:25.002Z,10.80
2023-04-08T11:15:31.701Z,11.15
2023-04-08T11:16:35.167Z,9.30
2023-04-08T11:17:37.829Z,13.90
2023-04-08T11:18:41.603Z,10.30
2023-04-08T11:19:44.445Z,9.32
2023-04-08T11:20:51.145Z,11.38
2023-04-08T11:21:55.861Z,10.10
2023-04-08T11:22:57.851Z,10.27
2023-04-08T11:24:09.912Z,11.63
2023-04-08T11:25:12.276Z,12.77
2023-04-08T11:26:16.476Z,11.77
2023-04-08T11:27:19.353Z,9.98
2023-04-08T11:28:21.324Z,11.80
2023-04-08T11:29:24.245Z,12.80
2023-04-08T11:30:26.686Z,12.77
2023-04-08T11:31:30.188Z,13.13
2023-04-08T11:32:33.552Z,11.38
2023-04-08T11:33:36.515Z,11.07
2023-04-08T11:34:40.170Z,12.60
2023-04-08T11:35:43.912Z,9.90
2023-04-08T11:36:47.385Z,10.38
2023-04-08T11:37:52.446Z,11.00
2023-04-08T11:38:55.682Z,10.68
2023-04-08T11:40:02.675Z,10.05
2023-04-08T11:41:05.555Z,11.00
2023-04-08T11:42:09.669Z,11.65
2023-04-08T11:43:15.391Z,9.93
2023-04-08T11:44:18.197Z,9.85
2023-04-08T11:45:21.453Z,11.52
2023-04-08T11:46:27.499Z,10.77
2023-04-08T11:47:33.897Z,11.90
2023-04-08T11:48:36.865Z,14.88
2023-04-08T11:49:46.253Z,14.93
2023-04-08T11:50:50.756Z,14.23
2023-04-08T11:51:57.728Z,13.77
2023-04-08T11:53:04.737Z,10.48
2023-04-08T11:54:08.013Z,13.20
2023-04-08T11:55:10.796Z,10.68
2023-04-08T11:56:18.808Z,13.77
2023-04-08T11:57:29.569Z,17.00
2023-04-08T11:58:32.510Z,12.88
2023-04-08T11:59:35.336Z,14.90
2023-04-08T12:00:37.416Z,11.25
2023-04-08T12:01:40.427Z,13.38
2023-04-08T12:02:43.528Z,12.07
2023-04-08T12:03:59.942Z,15.23
2023-04-08T12:05:02.626Z,12.40
2023-04-08T12:06:07.204Z,10.98
2023-04-08T12:07:10.711Z,11.15
2023-04-08T12:08:14.861Z,11.32
2023-04-08T12:09:19.827Z,9.75
2023-04-08T12:10:21.847Z,10.60
2023-04-08T12:11:25.043Z,11.00
2023-04-08T12:12:27.809Z,9.57
2023-04-08T12:13:31.444Z,10.57
2023-04-08T12:14:34.282Z,10.15
2023-04-08T12:15:37.135Z,11.05
2023-04-08T12:16:39.945Z,11.95
2023-04-08T12:17:41.920Z,10.85
2023-04-08T12:18:49.407Z,11.38
2023-04-08T12:19:52.396Z,11.57
2023-04-08T12:20:55.910Z,10.65
2023-04-08T12:21:58.385Z,11.32
2023-04-08T12:23:01.420Z,11.38
2023-04-08T12:24:05.711Z,12.32
2023-04-08T12:25:08.586Z,10.10
2023-04-08T12:26:11.707Z,13.35
2023-04-08T12:27:15.403Z,10.80
2023-04-08T12:28:19.960Z,10.25
2023-04-08T12:29:22.818Z,12.98
2023-04-08T12:30:24.811Z,11.13
2023-04-08T12:31:28.699Z,10.25
2023-04-08T12:32:30.663Z,11.73
2023-04-08T12:33:33.502Z,10.77
2023-04-08T12:34:35.897Z,13.18
2023-04-08T12:35:38.794Z,13.88
2023-04-08T12:36:41.954Z,13.30
2023-04-08T12:37:45.715Z,13.88
2023-04-08T12:38:48.741Z,13.15
2023-04-08T12:39:53.027Z,13.68
2023-04-08T12:40:56.461Z,13.43
2023-04-08T12:41:59.482Z,16.50
2023-04-08T12:43:01.288Z,16.80
2023-04-08T12:44:04.215Z,14.57
2023-04-08T12:45:08.274Z,11.65
2023-04-08T12:46:11.115Z,12.52
2023-04-08T12:47:13.831Z,13.52
2023-04-08T12:48:16.847Z,12.00
2023-04-08T12:49:19.692Z,14.55
2023-04-08T12:50:23.590Z,13.38
2023-04-08T12:51:28.545Z,12.18
2023-04-08T12:52:30.429Z,13.05
2023-04-08T12:53:33.288Z,13.40
2023-04-08T12:54:35.252Z,12.85
2023-04-08T12:55:39.478Z,12.27
2023-04-08T12:56:44.701Z,12.13
2023-04-08T12:57:47.669Z,11.98
2023-04-08T12:58:49.656Z,12.50
2023-04-08T12:59:53.431Z,14.25
2023-04-08T13:00:56.292Z,14.02
2023-04-08T13:01:59.711Z,13.38
2023-04-08T13:03:08.910Z,14.00
2023-04-08T13:04:12.212Z,13.30
2023-04-08T13:05:14.173Z,13.02
2023-04-08T13:06:18.230Z,14.07
2023-04-08T13:07:21.055Z,13.35
2023-04-08T13:08:24.104Z,13.85
2023-04-08T13:09:30.604Z,14.52
2023-04-08T13:10:33.461Z,16.30
2023-04-08T13:11:37.636Z,13.60
2023-04-08T13:12:41.915Z,14.32
2023-04-08T13:13:44.057Z,14.32
2023-04-08T13:14:47.014Z,14.75
2023-04-08T13:15:53.842Z,14.77
2023-04-08T13:16:55.709Z,13.65
2023-04-08T13:17:59.468Z,13.90
2023-04-08T13:19:01.737Z,15.98
2023-04-08T13:20:05.413Z,13.38
2023-04-08T13:21:08.251Z,13.63
2023-04-08T13:22:10.312Z,14.85
2023-04-08T13:23:14.546Z,14.07
2023-04-08T13:24:16.745Z,15.95
2023-04-08T13:25:21.104Z,13.90
2023-04-08T13:26:22.929Z,14.25
2023-04-08T13:27:27.236Z,14.02
2023-04-08T13:28:30.301Z,18.98
2023-04-08T13:29:32.100Z,19.48
2023-04-08T13:30:35.332Z,14.45
2023-04-08T13:32:02.231Z,15.05
2023-04-08T13:33:05.693Z,15.77
2023-04-08T13:34:08.512Z,15.02
2023-04-08T13:35:11.552Z,16.40
2023-04-08T13:36:13.467Z,16.25
2023-04-08T13:37:16.709Z,15.63
2023-04-08T13:38:18.557Z,16.35
2023-04-08T13:39:22.279Z,15.52
2023-04-08T13:40:24.192Z,15.68
2023-04-08T13:41:28.350Z,15.20
2023-04-08T13:42:32.831Z,15.82
2023-04-08T13:43:35.931Z,14.98
2023-04-08T13:44:39.672Z,15.77
2023-04-08T13:46:08.133Z,16.75
2023-04-08T13:47:11.606Z,15.07
2023-04-08T13:48:14.668Z,15.30
2023-04-08T13:49:17.481Z,16.67
2023-04-08T13:50:24.392Z,17.55
2023-04-08T13:51:27.188Z,16.20
2023-04-08T13:52:29.984Z,19.83
2023-04-08T13:53:31.912Z,18.42